This is the latest recevied weather packets stored in our database for station/object SQ9IWE-13. If no packets are shown the sender has not sent any weather packets the latest 10 day(s).
| Time | Temp. | Humidity | Pressure | Rain* | Wind** | Luminosity | Snow |
|---|---|---|---|---|---|---|---|
| 1777921801 | 18.89° C | 49% | 1012.5 hPa | - | - | - | - |
| 1777919401 | 20.56° C | 45% | 1012.2 hPa | - | - | - | - |
| 1777918201 | 21.67° C | 43% | 1012.1 hPa | - | - | - | - |
| 1777917601 | 21.67° C | 43% | 1012 hPa | - | - | - | - |
| 1777917001 | 22.22° C | 43% | 1012 hPa | - | - | - | - |
| 1777915801 | 22.78° C | 42% | 1011.9 hPa | - | - | - | - |
| 1777914601 | 23.33° C | 41% | 1011.7 hPa | - | - | - | - |
| 1777909201 | 25° C | 37% | 1012 hPa | - | - | - | - |
| 1777905601 | 26.11° C | 36% | 1012.2 hPa | - | - | - | - |
| 1777900801 | 26.11° C | 35% | 1012.7 hPa | - | - | - | - |
| 1777900201 | 25.56° C | 34% | 1013 hPa | - | - | - | - |
| 1777898401 | 26.11° C | 35% | 1013.2 hPa | - | - | - | - |
| 1777897801 | 26.11° C | 35% | 1013.3 hPa | - | - | - | - |
| 1777897201 | 26.11° C | 34% | 1013.3 hPa | - | - | - | - |
| 1777896601 | 26.67° C | 33% | 1013.3 hPa | - | - | - | - |
| 1777896001 | 26.11° C | 34% | 1013.4 hPa | - | - | - | - |
| 1777895401 | 26.11° C | 34% | 1013.6 hPa | - | - | - | - |
| 1777894801 | 28.89° C | 31% | 1013.7 hPa | - | - | - | - |
| 1777894201 | 27.22° C | 32% | 1013.8 hPa | - | - | - | - |
| 1777893601 | 29.44° C | 32% | 1014 hPa | - | - | - | - |
| 1777893001 | 27.78° C | 32% | 1014 hPa | - | - | - | - |
| 1777892401 | 27.78° C | 32% | 1014.2 hPa | - | - | - | - |
| 1777891801 | 27.22° C | 32% | 1014.3 hPa | - | - | - | - |
| 1777891201 | 26.67° C | 33% | 1014.4 hPa | - | - | - | - |
| 1777890000 | 25.56° C | 33% | 1014.7 hPa | - | - | - | - |
* Rain since midnight (hover to see other rain measurements)
** Current wind speed in m/s (hover to see current wind gust speed)